ARA227 DAAT-DRRN
Flight info
| Callsign | ARA227 |
|---|---|
| Flight time | 1h 39m |
| Altitude | 36000 |
| Route | TMS UG855 GASON DCT GUMAT DCT POXAS DCT RITAT |
| Aircraft | B737/M-SDE2E3FGHIRWXY/LB1 |
Departure
| Time | 2026-05-06 17:43 |
|---|---|
| Airport | Aguenar – Hadj Bey Akhamok Airport (DAAT) |
Arrival
| Time | 2026-05-06 19:22 |
|---|---|
| Airport | Diori Hamani International Airport (DRRN) |
| Time | Latitude | Longitude | Altitude | Speed | Heading |
|---|---|---|---|---|---|
| 2026-05-06 17:28 | 22.81349 | 5.44891 | 4482 ft | 0 kts | 87° |
| 2026-05-06 17:40 | 22.81349 | 5.44899 | 4482 ft | 3 kts | 88° |
| 2026-05-06 17:40 | 22.81351 | 5.44933 | 4483 ft | 7 kts | 71° |
| 2026-05-06 17:40 | 22.81402 | 5.45017 | 4487 ft | 20 kts | 54° |
| 2026-05-06 17:41 | 22.81446 | 5.45204 | 4485 ft | 33 kts | 60° |
| 2026-05-06 17:41 | 22.81679 | 5.45334 | 4495 ft | 44 kts | 21° |
| 2026-05-06 17:41 | 22.81961 | 5.45452 | 4502 ft | 41 kts | 21° |
| 2026-05-06 17:41 | 22.82208 | 5.45556 | 4512 ft | 35 kts | 21° |
| 2026-05-06 17:42 | 22.82412 | 5.45645 | 4517 ft | 30 kts | 22° |
| 2026-05-06 17:42 | 22.82599 | 5.45700 | 4528 ft | 20 kts | 354° |
| 2026-05-06 17:42 | 22.82634 | 5.45733 | 4529 ft | 2 kts | 121° |
| 2026-05-06 17:42 | 22.82589 | 5.45726 | 4525 ft | 14 kts | 202° |
| 2026-05-06 17:43 | 22.82310 | 5.45606 | 4516 ft | 77 kts | 201° |
| 2026-05-06 17:43 | 22.81606 | 5.45297 | 4488 ft | 139 kts | 201° |
| 2026-05-06 17:43 | 22.80570 | 5.44846 | 4669 ft | 169 kts | 199° |
| 2026-05-06 17:43 | 22.79495 | 5.44405 | 5441 ft | 163 kts | 203° |
| 2026-05-06 17:44 | 22.78455 | 5.43935 | 6109 ft | 161 kts | 209° |
| 2026-05-06 17:44 | 22.77415 | 5.43405 | 6531 ft | 174 kts | 201° |
| 2026-05-06 17:44 | 22.76170 | 5.42965 | 6738 ft | 200 kts | 198° |
| 2026-05-06 17:44 | 22.74754 | 5.42497 | 6913 ft | 225 kts | 198° |
| 2026-05-06 17:45 | 22.73179 | 5.41975 | 7076 ft | 248 kts | 198° |
| 2026-05-06 17:45 | 22.72078 | 5.41606 | 7184 ft | 264 kts | 198° |
| 2026-05-06 17:45 | 22.70187 | 5.40965 | 7487 ft | 284 kts | 198° |
| 2026-05-06 17:45 | 22.68280 | 5.40309 | 8147 ft | 289 kts | 198° |
| 2026-05-06 17:46 | 22.66356 | 5.39642 | 8888 ft | 292 kts | 198° |
| 2026-05-06 17:46 | 22.64418 | 5.38964 | 9658 ft | 294 kts | 198° |
| 2026-05-06 17:46 | 22.62459 | 5.38274 | 10312 ft | 301 kts | 198° |
| 2026-05-06 17:46 | 22.60388 | 5.37543 | 10494 ft | 325 kts | 198° |
| 2026-05-06 17:47 | 22.58162 | 5.36753 | 10648 ft | 348 kts | 198° |
| 2026-05-06 17:47 | 22.55826 | 5.35924 | 10779 ft | 368 kts | 198° |
| 2026-05-06 17:47 | 22.53343 | 5.35041 | 11079 ft | 380 kts | 198° |
| 2026-05-06 17:47 | 22.50807 | 5.34138 | 11622 ft | 385 kts | 198° |
| 2026-05-06 17:48 | 22.48255 | 5.33230 | 12241 ft | 388 kts | 198° |
| 2026-05-06 17:48 | 22.45684 | 5.32315 | 12865 ft | 391 kts | 198° |
| 2026-05-06 17:48 | 22.43179 | 5.31423 | 13450 ft | 395 kts | 199° |
| 2026-05-06 17:48 | 22.40555 | 5.30489 | 14001 ft | 399 kts | 199° |
| 2026-05-06 17:49 | 22.38806 | 5.29866 | 14431 ft | 399 kts | 199° |
| 2026-05-06 17:49 | 22.36166 | 5.28927 | 15063 ft | 400 kts | 199° |
| 2026-05-06 17:49 | 22.33514 | 5.27984 | 15654 ft | 402 kts | 199° |
| 2026-05-06 17:49 | 22.30849 | 5.27036 | 16243 ft | 404 kts | 199° |
| 2026-05-06 17:50 | 22.28162 | 5.26081 | 16783 ft | 408 kts | 199° |
| 2026-05-06 17:50 | 22.25453 | 5.25119 | 17321 ft | 411 kts | 199° |
| 2026-05-06 17:50 | 22.22731 | 5.24152 | 17862 ft | 414 kts | 199° |
| 2026-05-06 17:50 | 22.19987 | 5.23178 | 18340 ft | 417 kts | 199° |
| 2026-05-06 17:51 | 22.17225 | 5.22199 | 18794 ft | 419 kts | 199° |
| 2026-05-06 17:51 | 22.14447 | 5.21214 | 19254 ft | 421 kts | 199° |
| 2026-05-06 17:51 | 22.11653 | 5.20223 | 19709 ft | 423 kts | 199° |
| 2026-05-06 17:51 | 22.08849 | 5.19230 | 20155 ft | 425 kts | 199° |
| 2026-05-06 17:52 | 22.06045 | 5.18237 | 20583 ft | 427 kts | 199° |
| 2026-05-06 17:52 | 22.03205 | 5.17231 | 21025 ft | 429 kts | 199° |
| 2026-05-06 17:52 | 22.00362 | 5.16225 | 21434 ft | 432 kts | 199° |
| 2026-05-06 17:52 | 21.97537 | 5.15226 | 21839 ft | 434 kts | 199° |
| 2026-05-06 17:53 | 21.94661 | 5.14209 | 22226 ft | 436 kts | 200° |
| 2026-05-06 17:53 | 21.91771 | 5.13188 | 22613 ft | 438 kts | 200° |
| 2026-05-06 17:53 | 21.88872 | 5.12163 | 22978 ft | 440 kts | 200° |
| 2026-05-06 17:53 | 21.85960 | 5.11135 | 23324 ft | 442 kts | 200° |
| 2026-05-06 17:54 | 21.83031 | 5.10101 | 23607 ft | 444 kts | 200° |
| 2026-05-06 17:54 | 21.80087 | 5.09063 | 23902 ft | 445 kts | 200° |
| 2026-05-06 17:54 | 21.77135 | 5.08022 | 24199 ft | 447 kts | 200° |
| 2026-05-06 17:54 | 21.74178 | 5.06979 | 24482 ft | 448 kts | 200° |
| 2026-05-06 17:55 | 21.71207 | 5.05932 | 24752 ft | 450 kts | 200° |
| 2026-05-06 17:55 | 21.68226 | 5.04883 | 25012 ft | 452 kts | 200° |
| 2026-05-06 17:55 | 21.65236 | 5.03830 | 25261 ft | 453 kts | 200° |
| 2026-05-06 17:55 | 21.62232 | 5.02773 | 25508 ft | 455 kts | 200° |
| 2026-05-06 17:56 | 21.59217 | 5.01712 | 25743 ft | 457 kts | 200° |
| 2026-05-06 17:56 | 21.56184 | 5.00646 | 25972 ft | 459 kts | 200° |
| 2026-05-06 17:56 | 21.53141 | 4.99576 | 26202 ft | 460 kts | 201° |
| 2026-05-06 17:56 | 21.50094 | 4.98506 | 26433 ft | 461 kts | 201° |
| 2026-05-06 17:57 | 21.47035 | 4.97432 | 26644 ft | 463 kts | 201° |
| 2026-05-06 17:57 | 21.44006 | 4.96369 | 26847 ft | 465 kts | 201° |
| 2026-05-06 17:57 | 21.40937 | 4.95292 | 27054 ft | 466 kts | 201° |
| 2026-05-06 17:57 | 21.37850 | 4.94210 | 27255 ft | 467 kts | 201° |
| 2026-05-06 17:58 | 21.34750 | 4.93123 | 27440 ft | 469 kts | 201° |
| 2026-05-06 17:58 | 21.31642 | 4.92035 | 27626 ft | 471 kts | 201° |
| 2026-05-06 17:58 | 21.28525 | 4.90943 | 27802 ft | 472 kts | 201° |
| 2026-05-06 17:58 | 21.25399 | 4.89849 | 27990 ft | 473 kts | 201° |
| 2026-05-06 17:59 | 21.22274 | 4.88756 | 28226 ft | 473 kts | 201° |
| 2026-05-06 17:59 | 21.19148 | 4.87663 | 28511 ft | 472 kts | 201° |
| 2026-05-06 17:59 | 21.16034 | 4.86576 | 28815 ft | 471 kts | 201° |
| 2026-05-06 17:59 | 21.12923 | 4.85489 | 29099 ft | 470 kts | 202° |
| 2026-05-06 18:00 | 21.09923 | 4.84442 | 29369 ft | 470 kts | 202° |
| 2026-05-06 18:00 | 21.06811 | 4.83355 | 29663 ft | 469 kts | 202° |
| 2026-05-06 18:00 | 21.03713 | 4.82274 | 29950 ft | 469 kts | 202° |
| 2026-05-06 18:00 | 21.00612 | 4.81193 | 30223 ft | 468 kts | 202° |
| 2026-05-06 18:01 | 20.97513 | 4.80112 | 30507 ft | 467 kts | 202° |
| 2026-05-06 18:01 | 20.94424 | 4.79036 | 30785 ft | 467 kts | 203° |
| 2026-05-06 18:01 | 20.91336 | 4.77960 | 31077 ft | 466 kts | 203° |
| 2026-05-06 18:01 | 20.88257 | 4.76888 | 31363 ft | 465 kts | 203° |
| 2026-05-06 18:02 | 20.85180 | 4.75817 | 31660 ft | 464 kts | 204° |
| 2026-05-06 18:02 | 20.82106 | 4.74748 | 31976 ft | 463 kts | 204° |
| 2026-05-06 18:02 | 20.79083 | 4.73697 | 32279 ft | 463 kts | 204° |
| 2026-05-06 18:02 | 20.76018 | 4.72632 | 32589 ft | 462 kts | 204° |
| 2026-05-06 18:03 | 20.72962 | 4.71571 | 32909 ft | 461 kts | 204° |
| 2026-05-06 18:03 | 20.69916 | 4.70513 | 33236 ft | 460 kts | 205° |
| 2026-05-06 18:03 | 20.66874 | 4.69457 | 33574 ft | 459 kts | 205° |
| 2026-05-06 18:03 | 20.63838 | 4.68404 | 33879 ft | 458 kts | 205° |
| 2026-05-06 18:04 | 20.60809 | 4.67353 | 34149 ft | 458 kts | 205° |
| 2026-05-06 18:04 | 20.57781 | 4.66303 | 34402 ft | 457 kts | 205° |
| 2026-05-06 18:04 | 20.54763 | 4.65257 | 34665 ft | 456 kts | 205° |
| 2026-05-06 18:04 | 20.51745 | 4.64212 | 34913 ft | 455 kts | 206° |
| 2026-05-06 18:05 | 20.48732 | 4.63168 | 35144 ft | 455 kts | 206° |
| 2026-05-06 18:05 | 20.45719 | 4.62125 | 35391 ft | 455 kts | 206° |
| 2026-05-06 18:05 | 20.42709 | 4.61084 | 35642 ft | 454 kts | 206° |
| 2026-05-06 18:05 | 20.39701 | 4.60043 | 35708 ft | 456 kts | 206° |
| 2026-05-06 18:06 | 20.33693 | 4.57965 | 35711 ft | 455 kts | 206° |
| 2026-05-06 18:06 | 20.27689 | 4.55894 | 35716 ft | 453 kts | 206° |
| 2026-05-06 18:07 | 20.21707 | 4.53831 | 35717 ft | 450 kts | 206° |
| 2026-05-06 18:07 | 20.15742 | 4.51774 | 35714 ft | 450 kts | 206° |
| 2026-05-06 18:08 | 20.09788 | 4.49721 | 35720 ft | 450 kts | 206° |
| 2026-05-06 18:08 | 20.03814 | 4.47663 | 35722 ft | 452 kts | 206° |
| 2026-05-06 18:09 | 19.97818 | 4.45599 | 35723 ft | 453 kts | 205° |
| 2026-05-06 18:09 | 19.91805 | 4.43532 | 35717 ft | 455 kts | 205° |
| 2026-05-06 18:10 | 19.85798 | 4.41470 | 35723 ft | 457 kts | 205° |
| 2026-05-06 18:10 | 19.79744 | 4.39393 | 35712 ft | 458 kts | 205° |
| 2026-05-06 18:11 | 19.73676 | 4.37313 | 35708 ft | 458 kts | 205° |
| 2026-05-06 18:11 | 19.67608 | 4.35235 | 35716 ft | 458 kts | 205° |
| 2026-05-06 18:12 | 19.61538 | 4.33157 | 35712 ft | 458 kts | 205° |
| 2026-05-06 18:12 | 19.55470 | 4.31082 | 35720 ft | 458 kts | 205° |
| 2026-05-06 18:13 | 19.49545 | 4.29057 | 35714 ft | 458 kts | 205° |
| 2026-05-06 18:13 | 19.43480 | 4.26985 | 35710 ft | 457 kts | 205° |
| 2026-05-06 18:14 | 19.37420 | 4.24917 | 35722 ft | 457 kts | 205° |
| 2026-05-06 18:14 | 19.31406 | 4.22866 | 35717 ft | 457 kts | 205° |
| 2026-05-06 18:15 | 19.25347 | 4.20802 | 35709 ft | 457 kts | 205° |
| 2026-05-06 18:15 | 19.19291 | 4.18739 | 35719 ft | 457 kts | 205° |
| 2026-05-06 18:16 | 19.13234 | 4.16678 | 35712 ft | 457 kts | 205° |
| 2026-05-06 18:16 | 19.07203 | 4.14552 | 35712 ft | 457 kts | 205° |
| 2026-05-06 18:17 | 19.01217 | 4.12390 | 35712 ft | 457 kts | 206° |
| 2026-05-06 18:17 | 18.95198 | 4.10220 | 35703 ft | 457 kts | 205° |
| 2026-05-06 18:18 | 18.89180 | 4.08062 | 35716 ft | 457 kts | 205° |
| 2026-05-06 18:18 | 18.83152 | 4.05907 | 35712 ft | 457 kts | 205° |
| 2026-05-06 18:19 | 18.77125 | 4.03754 | 35708 ft | 457 kts | 205° |
| 2026-05-06 18:19 | 18.71101 | 4.01604 | 35705 ft | 457 kts | 205° |
| 2026-05-06 18:20 | 18.65074 | 3.99454 | 35707 ft | 457 kts | 205° |
| 2026-05-06 18:20 | 18.59049 | 3.97307 | 35703 ft | 457 kts | 205° |
| 2026-05-06 18:21 | 18.53061 | 3.95173 | 35707 ft | 457 kts | 205° |
| 2026-05-06 18:21 | 18.47025 | 3.93025 | 35706 ft | 457 kts | 205° |
| 2026-05-06 18:22 | 18.40991 | 3.90879 | 35704 ft | 457 kts | 205° |
| 2026-05-06 18:22 | 18.34982 | 3.88743 | 35705 ft | 457 kts | 205° |
| 2026-05-06 18:23 | 18.28946 | 3.86600 | 35703 ft | 458 kts | 205° |
| 2026-05-06 18:23 | 18.22913 | 3.84458 | 35703 ft | 458 kts | 205° |
| 2026-05-06 18:24 | 18.16877 | 3.82318 | 35706 ft | 458 kts | 205° |
| 2026-05-06 18:24 | 18.10836 | 3.80177 | 35699 ft | 458 kts | 204° |
| 2026-05-06 18:25 | 18.04792 | 3.78037 | 35704 ft | 458 kts | 204° |
| 2026-05-06 18:25 | 17.98785 | 3.75911 | 35703 ft | 459 kts | 204° |
| 2026-05-06 18:26 | 17.92733 | 3.73771 | 35702 ft | 459 kts | 204° |
| 2026-05-06 18:26 | 17.86681 | 3.71633 | 35703 ft | 459 kts | 204° |
| 2026-05-06 18:27 | 17.80619 | 3.69492 | 35703 ft | 459 kts | 204° |
| 2026-05-06 18:27 | 17.74562 | 3.67355 | 35702 ft | 460 kts | 204° |
| 2026-05-06 18:28 | 17.68494 | 3.65215 | 35702 ft | 460 kts | 204° |
| 2026-05-06 18:28 | 17.62426 | 3.63077 | 35703 ft | 460 kts | 204° |
| 2026-05-06 18:29 | 17.56356 | 3.60940 | 35706 ft | 461 kts | 204° |
| 2026-05-06 18:29 | 17.50269 | 3.58798 | 35703 ft | 461 kts | 204° |
| 2026-05-06 18:30 | 17.44187 | 3.56660 | 35706 ft | 461 kts | 204° |
| 2026-05-06 18:30 | 17.38100 | 3.54521 | 35699 ft | 461 kts | 204° |
| 2026-05-06 18:31 | 17.32016 | 3.52384 | 35700 ft | 461 kts | 204° |
| 2026-05-06 18:31 | 17.25927 | 3.50249 | 35699 ft | 461 kts | 204° |
| 2026-05-06 18:32 | 17.19837 | 3.48118 | 35701 ft | 461 kts | 204° |
| 2026-05-06 18:32 | 17.13786 | 3.46002 | 35699 ft | 461 kts | 204° |
| 2026-05-06 18:33 | 17.07699 | 3.43875 | 35698 ft | 461 kts | 204° |
| 2026-05-06 18:33 | 17.01600 | 3.41744 | 35696 ft | 462 kts | 204° |
| 2026-05-06 18:34 | 16.95512 | 3.39618 | 35702 ft | 462 kts | 204° |
| 2026-05-06 18:34 | 16.89417 | 3.37491 | 35701 ft | 462 kts | 204° |
| 2026-05-06 18:35 | 16.83320 | 3.35365 | 35698 ft | 462 kts | 204° |
| 2026-05-06 18:35 | 16.78254 | 3.33600 | 35698 ft | 462 kts | 204° |
| 2026-05-06 18:36 | 16.72155 | 3.31476 | 35705 ft | 462 kts | 203° |
| 2026-05-06 18:36 | 16.66054 | 3.29353 | 35699 ft | 462 kts | 203° |
| 2026-05-06 18:37 | 16.59944 | 3.27228 | 35699 ft | 463 kts | 203° |
| 2026-05-06 18:37 | 16.53833 | 3.25104 | 35701 ft | 463 kts | 203° |
| 2026-05-06 18:38 | 16.48031 | 3.23089 | 35693 ft | 463 kts | 203° |
| 2026-05-06 18:38 | 16.41916 | 3.20966 | 35697 ft | 463 kts | 203° |
| 2026-05-06 18:39 | 16.35795 | 3.18843 | 35694 ft | 463 kts | 203° |
| 2026-05-06 18:40 | 16.26615 | 3.15660 | 35694 ft | 463 kts | 203° |
| 2026-05-06 18:40 | 16.20542 | 3.13559 | 35701 ft | 463 kts | 203° |
| 2026-05-06 18:41 | 16.14384 | 3.11430 | 35697 ft | 463 kts | 203° |
| 2026-05-06 18:41 | 16.08278 | 3.09320 | 35700 ft | 463 kts | 203° |
| 2026-05-06 18:42 | 16.02200 | 3.07221 | 35704 ft | 463 kts | 203° |
| 2026-05-06 18:42 | 15.96092 | 3.05112 | 35701 ft | 463 kts | 203° |
| 2026-05-06 18:43 | 15.89972 | 3.03001 | 35702 ft | 463 kts | 203° |
| 2026-05-06 18:43 | 15.83859 | 3.00893 | 35697 ft | 463 kts | 203° |
| 2026-05-06 18:44 | 15.77742 | 2.98785 | 35703 ft | 463 kts | 202° |
| 2026-05-06 18:44 | 15.71620 | 2.96678 | 35698 ft | 463 kts | 202° |
| 2026-05-06 18:45 | 15.65498 | 2.94571 | 35699 ft | 463 kts | 202° |
| 2026-05-06 18:45 | 15.59416 | 2.92479 | 35701 ft | 464 kts | 202° |
| 2026-05-06 18:46 | 15.53280 | 2.90370 | 35703 ft | 464 kts | 202° |
| 2026-05-06 18:46 | 15.47147 | 2.88264 | 35700 ft | 464 kts | 202° |
| 2026-05-06 18:47 | 15.41014 | 2.86158 | 35701 ft | 464 kts | 202° |
| 2026-05-06 18:47 | 15.34875 | 2.84052 | 35703 ft | 464 kts | 202° |
| 2026-05-06 18:48 | 15.28768 | 2.81959 | 35709 ft | 465 kts | 202° |
| 2026-05-06 18:48 | 15.22626 | 2.79855 | 35709 ft | 465 kts | 202° |
| 2026-05-06 18:49 | 15.16471 | 2.77747 | 35706 ft | 465 kts | 202° |
| 2026-05-06 18:49 | 15.10325 | 2.75644 | 35710 ft | 466 kts | 202° |
| 2026-05-06 18:50 | 15.04169 | 2.73538 | 35713 ft | 466 kts | 202° |
| 2026-05-06 18:50 | 14.98008 | 2.71433 | 35710 ft | 466 kts | 202° |
| 2026-05-06 18:51 | 14.91842 | 2.69326 | 35712 ft | 466 kts | 202° |
| 2026-05-06 18:51 | 14.85719 | 2.67236 | 35714 ft | 467 kts | 202° |
| 2026-05-06 18:52 | 14.79554 | 2.65133 | 35715 ft | 467 kts | 202° |
| 2026-05-06 18:52 | 14.73604 | 2.63104 | 35718 ft | 467 kts | 202° |
| 2026-05-06 18:53 | 14.67429 | 2.61000 | 35717 ft | 467 kts | 202° |
| 2026-05-06 18:53 | 14.61243 | 2.58893 | 35720 ft | 467 kts | 202° |
| 2026-05-06 18:54 | 14.55064 | 2.56790 | 35719 ft | 468 kts | 202° |
| 2026-05-06 18:54 | 14.48881 | 2.54687 | 35721 ft | 468 kts | 202° |
| 2026-05-06 18:55 | 14.42698 | 2.52585 | 35720 ft | 468 kts | 202° |
| 2026-05-06 18:55 | 14.36509 | 2.50482 | 35724 ft | 468 kts | 201° |
| 2026-05-06 18:56 | 14.30359 | 2.48394 | 35724 ft | 468 kts | 201° |
| 2026-05-06 18:56 | 14.24163 | 2.46291 | 35731 ft | 468 kts | 201° |
| 2026-05-06 18:57 | 14.17975 | 2.44192 | 35726 ft | 468 kts | 201° |
| 2026-05-06 18:57 | 14.11788 | 2.42095 | 35731 ft | 468 kts | 201° |
| 2026-05-06 18:58 | 14.05599 | 2.39998 | 35738 ft | 468 kts | 201° |
| 2026-05-06 18:58 | 13.99446 | 2.37914 | 35740 ft | 468 kts | 201° |
| 2026-05-06 18:59 | 13.93261 | 2.35820 | 35749 ft | 468 kts | 201° |
| 2026-05-06 18:59 | 13.87357 | 2.33148 | 35756 ft | 462 kts | 216° |
| 2026-05-06 19:00 | 13.82506 | 2.28920 | 35756 ft | 456 kts | 230° |
| 2026-05-06 19:00 | 13.78340 | 2.24005 | 35762 ft | 456 kts | 231° |
| 2026-05-06 19:01 | 13.74177 | 2.19074 | 35765 ft | 456 kts | 231° |
| 2026-05-06 19:01 | 13.69975 | 2.14175 | 35770 ft | 456 kts | 231° |
| 2026-05-06 19:02 | 13.65760 | 2.09289 | 35772 ft | 457 kts | 230° |
| 2026-05-06 19:02 | 13.61539 | 2.04398 | 35773 ft | 457 kts | 230° |
| 2026-05-06 19:03 | 13.57321 | 1.99511 | 35775 ft | 457 kts | 230° |
| 2026-05-06 19:03 | 13.53101 | 1.94619 | 35772 ft | 457 kts | 230° |
| 2026-05-06 19:04 | 13.48886 | 1.89727 | 35775 ft | 457 kts | 230° |
| 2026-05-06 19:04 | 13.44670 | 1.84834 | 35771 ft | 457 kts | 230° |
| 2026-05-06 19:05 | 13.40484 | 1.79972 | 35772 ft | 457 kts | 230° |
| 2026-05-06 19:05 | 13.36277 | 1.75076 | 35774 ft | 457 kts | 230° |
| 2026-05-06 19:06 | 13.32063 | 1.70168 | 35731 ft | 458 kts | 230° |
| 2026-05-06 19:06 | 13.29951 | 1.67703 | 35467 ft | 461 kts | 230° |
| 2026-05-06 19:06 | 13.27840 | 1.65232 | 35239 ft | 459 kts | 230° |
| 2026-05-06 19:06 | 13.25736 | 1.62766 | 35003 ft | 459 kts | 230° |
| 2026-05-06 19:07 | 13.23631 | 1.60292 | 34777 ft | 460 kts | 231° |
| 2026-05-06 19:07 | 13.22367 | 1.58555 | 34590 ft | 459 kts | 242° |
| 2026-05-06 19:07 | 13.21158 | 1.54401 | 34298 ft | 456 kts | 268° |
| 2026-05-06 19:07 | 13.21327 | 1.51205 | 33774 ft | 445 kts | 281° |
| 2026-05-06 19:08 | 13.22239 | 1.48170 | 32532 ft | 448 kts | 295° |
| 2026-05-06 19:08 | 13.23886 | 1.45428 | 31088 ft | 457 kts | 309° |
| 2026-05-06 19:08 | 13.26199 | 1.43155 | 29675 ft | 465 kts | 323° |
| 2026-05-06 19:08 | 13.29032 | 1.41541 | 28123 ft | 470 kts | 338° |
| 2026-05-06 19:09 | 13.32202 | 1.40736 | 26672 ft | 472 kts | 354° |
| 2026-05-06 19:09 | 13.35482 | 1.40827 | 25319 ft | 472 kts | 10° |
| 2026-05-06 19:09 | 13.38598 | 1.41807 | 24063 ft | 468 kts | 26° |
| 2026-05-06 19:09 | 13.41322 | 1.43579 | 22785 ft | 462 kts | 41° |
| 2026-05-06 19:10 | 13.43493 | 1.45963 | 21444 ft | 453 kts | 54° |
| 2026-05-06 19:10 | 13.45063 | 1.48730 | 20187 ft | 443 kts | 68° |
| 2026-05-06 19:10 | 13.45957 | 1.51679 | 19136 ft | 432 kts | 76° |
| 2026-05-06 19:10 | 13.46647 | 1.54604 | 18592 ft | 411 kts | 77° |
| 2026-05-06 19:11 | 13.47276 | 1.57373 | 18390 ft | 383 kts | 77° |
| 2026-05-06 19:11 | 13.47866 | 1.59953 | 18229 ft | 359 kts | 77° |
| 2026-05-06 19:11 | 13.48430 | 1.62368 | 18077 ft | 338 kts | 77° |
| 2026-05-06 19:11 | 13.48971 | 1.64652 | 17881 ft | 320 kts | 77° |
| 2026-05-06 19:12 | 13.49501 | 1.66871 | 16711 ft | 329 kts | 76° |
| 2026-05-06 19:12 | 13.50452 | 1.69094 | 15243 ft | 352 kts | 53° |
| 2026-05-06 19:12 | 13.52334 | 1.70760 | 13892 ft | 367 kts | 30° |
| 2026-05-06 19:12 | 13.54605 | 1.71800 | 12522 ft | 375 kts | 22° |
| 2026-05-06 19:13 | 13.57016 | 1.72712 | 11045 ft | 362 kts | 21° |
| 2026-05-06 19:13 | 13.59345 | 1.73560 | 9669 ft | 348 kts | 20° |
| 2026-05-06 19:13 | 13.61428 | 1.74643 | 8923 ft | 319 kts | 40° |
| 2026-05-06 19:13 | 13.62677 | 1.76371 | 8459 ft | 291 kts | 67° |
| 2026-05-06 19:14 | 13.63234 | 1.78287 | 8089 ft | 268 kts | 79° |
| 2026-05-06 19:14 | 13.63465 | 1.80122 | 7746 ft | 251 kts | 87° |
| 2026-05-06 19:14 | 13.63371 | 1.81872 | 7434 ft | 242 kts | 102° |
| 2026-05-06 19:14 | 13.62922 | 1.83511 | 7169 ft | 242 kts | 108° |
| 2026-05-06 19:15 | 13.62348 | 1.85217 | 6886 ft | 267 kts | 109° |
| 2026-05-06 19:15 | 13.61706 | 1.87068 | 6492 ft | 275 kts | 110° |
| 2026-05-06 19:15 | 13.61077 | 1.88888 | 6120 ft | 264 kts | 110° |
| 2026-05-06 19:15 | 13.60481 | 1.90627 | 5773 ft | 253 kts | 110° |
| 2026-05-06 19:16 | 13.59901 | 1.92322 | 5481 ft | 250 kts | 110° |
| 2026-05-06 19:16 | 13.59315 | 1.94041 | 5350 ft | 261 kts | 110° |
| 2026-05-06 19:16 | 13.58716 | 1.95799 | 5112 ft | 262 kts | 111° |
| 2026-05-06 19:16 | 13.58107 | 1.97552 | 4744 ft | 253 kts | 116° |
| 2026-05-06 19:17 | 13.57082 | 1.98907 | 4543 ft | 230 kts | 146° |
| 2026-05-06 19:17 | 13.55710 | 1.99622 | 4393 ft | 216 kts | 166° |
| 2026-05-06 19:17 | 13.54226 | 1.99841 | 4338 ft | 220 kts | 178° |
| 2026-05-06 19:17 | 13.52683 | 1.99915 | 4226 ft | 219 kts | 179° |
| 2026-05-06 19:18 | 13.51223 | 1.99977 | 4169 ft | 201 kts | 179° |
| 2026-05-06 19:18 | 13.49840 | 2.00037 | 4122 ft | 203 kts | 179° |
| 2026-05-06 19:18 | 13.48396 | 2.00351 | 3848 ft | 223 kts | 150° |
| 2026-05-06 19:18 | 13.47434 | 2.01578 | 3600 ft | 226 kts | 107° |
| 2026-05-06 19:19 | 13.47343 | 2.03180 | 3375 ft | 225 kts | 88° |
| 2026-05-06 19:19 | 13.47465 | 2.04787 | 3106 ft | 225 kts | 88° |
| 2026-05-06 19:19 | 13.47582 | 2.06334 | 2834 ft | 214 kts | 88° |
| 2026-05-06 19:19 | 13.47643 | 2.07828 | 2531 ft | 204 kts | 88° |
| 2026-05-06 19:20 | 13.47718 | 2.08768 | 2376 ft | 196 kts | 90° |
| 2026-05-06 19:20 | 13.47821 | 2.10535 | 2039 ft | 177 kts | 96° |
| 2026-05-06 19:20 | 13.47910 | 2.11733 | 1851 ft | 156 kts | 86° |
| 2026-05-06 19:20 | 13.47983 | 2.12459 | 1693 ft | 148 kts | 90° |
| 2026-05-06 19:21 | 13.48025 | 2.13829 | 1470 ft | 147 kts | 90° |
| 2026-05-06 19:21 | 13.48051 | 2.14557 | 1298 ft | 157 kts | 89° |
| 2026-05-06 19:21 | 13.48095 | 2.15688 | 1035 ft | 155 kts | 88° |
| 2026-05-06 19:21 | 13.48150 | 2.16758 | 795 ft | 149 kts | 86° |
| 2026-05-06 19:22 | 13.48198 | 2.17775 | 723 ft | 130 kts | 87° |
| 2026-05-06 19:22 | 13.48236 | 2.18582 | 726 ft | 96 kts | 88° |
| 2026-05-06 19:22 | 13.48262 | 2.19142 | 722 ft | 57 kts | 88° |
| 2026-05-06 19:22 | 13.48239 | 2.19293 | 722 ft | 7 kts | 58° |
| 2026-05-06 19:23 | 13.48268 | 2.19270 | 723 ft | 10 kts | 269° |
| 2026-05-06 19:23 | 13.48262 | 2.19141 | 722 ft | 27 kts | 266° |
| 2026-05-06 19:23 | 13.48249 | 2.18902 | 724 ft | 39 kts | 267° |
| 2026-05-06 19:23 | 13.48236 | 2.18584 | 726 ft | 49 kts | 268° |
| 2026-05-06 19:24 | 13.48221 | 2.18205 | 726 ft | 56 kts | 268° |
| 2026-05-06 19:24 | 13.48207 | 2.17830 | 723 ft | 49 kts | 268° |
| 2026-05-06 19:24 | 13.48108 | 2.17640 | 724 ft | 24 kts | 182° |
| 2026-05-06 19:24 | 13.47946 | 2.17649 | 724 ft | 23 kts | 171° |
| 2026-05-06 19:25 | 13.47833 | 2.17705 | 724 ft | 11 kts | 141° |
| 2026-05-06 19:25 | 13.47800 | 2.17731 | 726 ft | 0 kts | 144° |